createdAt,value
2017-03-14T00:00:14.307Z,0
2017-03-14T00:01:24.604Z,0
2017-03-14T00:02:35.289Z,0
2017-03-14T00:03:46.231Z,0
2017-03-14T00:04:56.572Z,0
2017-03-14T00:06:06.877Z,0
2017-03-14T00:07:16.774Z,0
2017-03-14T00:08:26.291Z,0
2017-03-14T00:09:36.842Z,0
2017-03-14T00:10:47.131Z,0
2017-03-14T00:11:56.644Z,0
2017-03-14T00:13:06.155Z,0
2017-03-14T00:14:16.843Z,0
2017-03-14T00:15:27.786Z,0
2017-03-14T00:16:37.675Z,0
2017-03-14T00:17:47.604Z,0
2017-03-14T00:18:57.893Z,0
2017-03-14T00:20:08.204Z,0
2017-03-14T00:21:18.358Z,0
2017-03-14T00:22:28.636Z,0
2017-03-14T00:23:38.527Z,0
2017-03-14T00:24:48.428Z,0
2017-03-14T00:25:58.713Z,0
2017-03-14T00:27:08.869Z,0
2017-03-14T00:28:19.162Z,0
2017-03-14T00:29:29.452Z,0
2017-03-14T00:30:40.139Z,0
2017-03-14T00:31:50.030Z,0
2017-03-14T00:33:00.568Z,0
2017-03-14T00:34:10.506Z,0
2017-03-14T00:35:21.213Z,0
2017-03-14T00:36:31.533Z,0
2017-03-14T00:37:41.439Z,0
2017-03-14T00:38:51.996Z,0
2017-03-14T00:40:02.300Z,0
2017-03-14T00:41:12.992Z,0
2017-03-14T00:42:22.893Z,0
2017-03-14T00:43:33.579Z,0
2017-03-14T00:44:44.519Z,0
2017-03-14T00:45:55.220Z,0
2017-03-14T00:47:05.513Z,0
2017-03-14T00:48:16.211Z,0
2017-03-14T00:49:25.705Z,0
2017-03-14T00:50:36.251Z,0
2017-03-14T00:51:46.544Z,0
2017-03-14T00:52:57.246Z,0
2017-03-14T00:54:07.931Z,0
2017-03-14T00:55:18.610Z,0
2017-03-14T00:56:29.160Z,0
2017-03-14T00:57:38.658Z,0
2017-03-14T00:58:48.152Z,0
2017-03-14T00:59:58.056Z,0
2017-03-14T01:01:08.743Z,0
2017-03-14T01:02:19.290Z,0
2017-03-14T01:03:29.981Z,0
2017-03-14T01:04:39.876Z,0
2017-03-14T01:05:50.154Z,0
2017-03-14T01:07:00.448Z,0
2017-03-14T01:08:10.601Z,0
2017-03-14T01:09:20.120Z,0
2017-03-14T01:10:30.414Z,0
2017-03-14T01:11:40.309Z,0
2017-03-14T01:12:50.207Z,0
2017-03-14T01:13:59.957Z,0
2017-03-14T01:15:09.462Z,0
2017-03-14T01:16:19.762Z,0
2017-03-14T01:17:29.647Z,0
2017-03-14T01:18:39.951Z,0
2017-03-14T01:19:50.878Z,0
2017-03-14T01:21:00.385Z,0
2017-03-14T01:22:10.678Z,0
2017-03-14T01:23:20.573Z,0
2017-03-14T01:24:31.266Z,0
2017-03-14T01:25:42.203Z,0
2017-03-14T01:26:52.496Z,0
2017-03-14T01:28:02.820Z,0
2017-03-14T01:29:13.113Z,0
2017-03-14T01:30:23.415Z,0
2017-03-14T01:31:33.565Z,0
2017-03-14T01:32:44.251Z,0
2017-03-14T01:33:54.173Z,0
2017-03-14T01:35:04.468Z,0
2017-03-14T01:36:15.151Z,0
2017-03-14T01:37:26.088Z,0
2017-03-14T01:38:35.594Z,0
2017-03-14T01:39:45.447Z,0
2017-03-14T01:40:55.372Z,0
2017-03-14T01:42:05.658Z,0
2017-03-14T01:43:16.195Z,0
2017-03-14T01:44:26.097Z,0
2017-03-14T01:45:36.783Z,0
2017-03-14T01:46:46.685Z,0
2017-03-14T01:47:57.381Z,0
2017-03-14T01:49:07.932Z,0
2017-03-14T01:50:18.221Z,0
2017-03-14T01:51:28.901Z,0
2017-03-14T01:52:39.192Z,0
2017-03-14T01:53:49.098Z,0
2017-03-14T01:54:59.261Z,0
2017-03-14T01:56:09.566Z,0
2017-03-14T01:57:19.875Z,0
2017-03-14T01:58:29.777Z,0
2017-03-14T01:59:39.677Z,0
2017-03-14T02:00:50.232Z,0
2017-03-14T02:02:00.527Z,0
2017-03-14T02:03:10.422Z,0
2017-03-14T02:04:21.169Z,0
2017-03-14T02:05:31.901Z,0
2017-03-14T02:06:42.838Z,0
2017-03-14T02:07:53.132Z,0
2017-03-14T02:09:03.418Z,0
2017-03-14T02:10:13.721Z,0
2017-03-14T02:11:24.413Z,0
2017-03-14T02:12:34.953Z,0
2017-03-14T02:13:45.267Z,0
2017-03-14T02:14:55.963Z,0
2017-03-14T02:16:06.250Z,0
2017-03-14T02:17:16.554Z,0
2017-03-14T02:18:27.487Z,0
2017-03-14T02:19:37.772Z,0
2017-03-14T02:20:47.673Z,0
2017-03-14T02:21:57.567Z,0
2017-03-14T02:23:07.470Z,0
2017-03-14T02:24:18.005Z,0
2017-03-14T02:25:28.290Z,0
2017-03-14T02:26:38.199Z,0
2017-03-14T02:27:47.705Z,0
2017-03-14T02:28:57.993Z,0
2017-03-14T02:30:08.532Z,0
2017-03-14T02:31:19.216Z,0
2017-03-14T02:32:28.720Z,0
2017-03-14T02:33:38.616Z,0
2017-03-14T02:34:48.896Z,0
2017-03-14T02:35:59.451Z,0
2017-03-14T02:37:08.951Z,0
2017-03-14T02:38:19.641Z,0
2017-03-14T02:39:29.541Z,0
2017-03-14T02:40:39.863Z,0
2017-03-14T02:41:50.437Z,0
2017-03-14T02:43:01.123Z,0
2017-03-14T02:44:11.809Z,0
2017-03-14T02:45:22.091Z,0
2017-03-14T02:46:32.784Z,0
2017-03-14T02:47:43.322Z,0
2017-03-14T02:48:53.213Z,0
2017-03-14T02:50:03.498Z,0
2017-03-14T02:51:13.791Z,0
2017-03-14T02:52:23.742Z,0
2017-03-14T02:53:34.280Z,0
2017-03-14T02:54:44.573Z,0
2017-03-14T02:55:54.464Z,0
2017-03-14T02:57:04.758Z,0
2017-03-14T02:58:15.061Z,0
2017-03-14T02:59:25.604Z,0
2017-03-14T03:00:36.300Z,0
2017-03-14T03:01:46.989Z,0
2017-03-14T03:02:56.887Z,0
2017-03-14T03:04:07.580Z,0
2017-03-14T03:05:17.746Z,0
2017-03-14T03:06:27.650Z,0
2017-03-14T03:07:37.949Z,0
2017-03-14T03:08:48.243Z,0
2017-03-14T03:09:58.144Z,0
2017-03-14T03:11:09.082Z,0
2017-03-14T03:12:19.383Z,0
2017-03-14T03:13:29.670Z,0
2017-03-14T03:14:39.997Z,0
2017-03-14T03:15:49.899Z,0
2017-03-14T03:17:00.448Z,0
2017-03-14T03:18:10.337Z,0
2017-03-14T03:19:20.234Z,0
2017-03-14T03:20:30.134Z,0
2017-03-14T03:21:40.815Z,0
2017-03-14T03:22:51.362Z,0
2017-03-14T03:24:01.664Z,0
2017-03-14T03:25:11.959Z,0
2017-03-14T03:26:21.852Z,0
2017-03-14T03:27:32.163Z,0
2017-03-14T03:28:42.714Z,0
2017-03-14T03:29:53.383Z,0
2017-03-14T03:31:03.688Z,0
2017-03-14T03:32:14.373Z,0
2017-03-14T03:33:25.054Z,0
2017-03-14T03:34:35.599Z,0
2017-03-14T03:35:45.890Z,0
2017-03-14T03:36:56.192Z,0
2017-03-14T03:38:06.479Z,0
2017-03-14T03:39:16.777Z,0
2017-03-14T03:40:27.734Z,0
2017-03-14T03:41:38.019Z,0
2017-03-14T03:42:48.711Z,0
2017-03-14T03:43:58.626Z,0
2017-03-14T03:45:08.152Z,0
2017-03-14T03:46:18.296Z,0
2017-03-14T03:47:28.978Z,0
2017-03-14T03:48:39.276Z,0
2017-03-14T03:49:49.581Z,0
2017-03-14T03:50:59.083Z,0
2017-03-14T03:52:09.637Z,0
2017-03-14T03:53:19.150Z,0
2017-03-14T03:54:29.840Z,0
2017-03-14T03:55:39.355Z,0
2017-03-14T03:56:50.042Z,0
2017-03-14T03:58:00.191Z,0
2017-03-14T03:59:10.475Z,0
2017-03-14T04:00:20.752Z,0
2017-03-14T04:01:30.653Z,0
2017-03-14T04:02:40.555Z,0
2017-03-14T04:03:50.712Z,0
2017-03-14T04:05:01.003Z,0
2017-03-14T04:06:10.902Z,0
2017-03-14T04:07:21.194Z,0
2017-03-14T04:08:31.890Z,0
2017-03-14T04:09:42.037Z,0
2017-03-14T04:10:52.720Z,0
2017-03-14T04:12:02.613Z,0
2017-03-14T04:13:12.140Z,0
2017-03-14T04:14:22.029Z,0
2017-03-14T04:15:32.575Z,0
2017-03-14T04:16:42.493Z,0
2017-03-14T04:17:52.805Z,0
2017-03-14T04:19:03.149Z,0
2017-03-14T04:20:13.042Z,0
2017-03-14T04:21:23.588Z,0
2017-03-14T04:22:33.878Z,0
2017-03-14T04:23:44.571Z,0
2017-03-14T04:24:54.875Z,0
2017-03-14T04:26:05.165Z,0
2017-03-14T04:27:15.705Z,0
2017-03-14T04:28:26.392Z,0
2017-03-14T04:29:36.680Z,0
2017-03-14T04:30:46.980Z,0
2017-03-14T04:31:56.485Z,0
2017-03-14T04:33:07.423Z,0
2017-03-14T04:34:18.129Z,0
2017-03-14T04:35:28.821Z,0
2017-03-14T04:36:38.322Z,0
2017-03-14T04:37:48.208Z,0
2017-03-14T04:38:58.761Z,0
2017-03-14T04:40:09.055Z,0
2017-03-14T04:41:19.347Z,0
2017-03-14T04:42:29.242Z,0
2017-03-14T04:43:39.555Z,0
2017-03-14T04:44:49.308Z,0
2017-03-14T04:45:59.616Z,0
2017-03-14T04:47:09.903Z,0
2017-03-14T04:48:20.187Z,0
2017-03-14T04:49:30.479Z,0
2017-03-14T04:50:41.031Z,0
2017-03-14T04:51:51.314Z,0
2017-03-14T04:53:02.000Z,0
2017-03-14T04:54:12.294Z,0
2017-03-14T04:55:22.966Z,0
2017-03-14T04:56:33.513Z,0
2017-03-14T04:57:44.199Z,0
2017-03-14T04:58:54.495Z,0
2017-03-14T05:00:04.389Z,0
2017-03-14T05:01:13.541Z,0
2017-03-14T05:02:24.090Z,4
2017-03-14T05:03:33.997Z,4
2017-03-14T05:04:44.297Z,4
2017-03-14T05:05:54.201Z,4
2017-03-14T05:07:04.108Z,8
2017-03-14T05:08:14.666Z,4
2017-03-14T05:09:24.958Z,8
2017-03-14T05:10:35.642Z,8
2017-03-14T05:11:45.190Z,12
2017-03-14T05:12:55.907Z,12
2017-03-14T05:14:06.473Z,16
2017-03-14T05:15:17.461Z,16
2017-03-14T05:16:27.781Z,16
2017-03-14T05:17:38.074Z,20
2017-03-14T05:18:48.360Z,20
2017-03-14T05:19:58.514Z,24
2017-03-14T05:21:08.802Z,28
2017-03-14T05:22:19.085Z,28
2017-03-14T05:23:29.388Z,32
2017-03-14T05:24:39.285Z,36
2017-03-14T05:25:49.446Z,40
2017-03-14T05:27:00.127Z,44
2017-03-14T05:28:10.430Z,48
2017-03-14T05:29:21.120Z,52
2017-03-14T05:30:31.449Z,60
2017-03-14T05:31:41.992Z,68
2017-03-14T05:32:51.894Z,72
2017-03-14T05:34:02.196Z,80
2017-03-14T05:35:12.486Z,88
2017-03-14T05:36:22.373Z,100
2017-03-14T05:37:33.293Z,108
2017-03-14T05:38:42.800Z,116
2017-03-14T05:39:52.703Z,128
2017-03-14T05:41:02.979Z,140
2017-03-14T05:42:13.260Z,148
2017-03-14T05:43:24.201Z,160
2017-03-14T05:44:34.102Z,168
2017-03-14T05:45:44.793Z,184
2017-03-14T05:46:56.386Z,196
2017-03-14T05:48:06.669Z,208
2017-03-14T05:49:17.609Z,228
2017-03-14T05:50:28.293Z,240
2017-03-14T05:51:38.585Z,256
2017-03-14T05:52:48.871Z,272
2017-03-14T05:53:59.168Z,288
2017-03-14T05:55:08.913Z,308
2017-03-14T05:56:18.808Z,328
2017-03-14T05:57:29.125Z,348
2017-03-14T05:58:39.420Z,372
2017-03-14T05:59:49.711Z,396
2017-03-14T06:01:00.661Z,416
2017-03-14T06:02:10.563Z,436
2017-03-14T06:03:20.461Z,460
2017-03-14T06:04:30.385Z,488
2017-03-14T06:05:40.290Z,508
2017-03-14T06:06:51.244Z,524
2017-03-14T06:08:01.143Z,536
2017-03-14T06:09:11.850Z,548
2017-03-14T06:10:22.543Z,560
2017-03-14T06:11:32.474Z,576
2017-03-14T06:12:42.634Z,584
2017-03-14T06:13:52.587Z,592
2017-03-14T06:15:02.902Z,596
2017-03-14T06:16:12.796Z,608
2017-03-14T06:17:23.482Z,616
2017-03-14T06:18:34.418Z,620
2017-03-14T06:19:44.863Z,612
2017-03-14T06:20:55.562Z,612
2017-03-14T06:22:06.265Z,628
2017-03-14T06:23:16.949Z,640
2017-03-14T06:24:27.883Z,648
2017-03-14T06:25:38.584Z,672
2017-03-14T06:26:49.297Z,716
2017-03-14T06:27:59.616Z,756
2017-03-14T06:29:10.350Z,780
2017-03-14T06:30:21.298Z,788
2017-03-14T06:31:31.994Z,800
2017-03-14T06:32:41.892Z,820
2017-03-14T06:33:52.249Z,856
2017-03-14T06:35:02.144Z,896
2017-03-14T06:36:12.711Z,908
2017-03-14T06:37:23.409Z,896
2017-03-14T06:38:34.116Z,896
2017-03-14T06:39:44.827Z,908
2017-03-14T06:40:55.121Z,920
2017-03-14T06:42:05.695Z,892
2017-03-14T06:43:16.399Z,868
2017-03-14T06:44:26.682Z,840
2017-03-14T06:45:36.985Z,868
2017-03-14T06:46:47.667Z,900
2017-03-14T06:47:57.815Z,892
2017-03-14T06:49:07.722Z,872
2017-03-14T06:50:18.024Z,896
2017-03-14T06:51:28.714Z,916
2017-03-14T06:52:38.624Z,936
2017-03-14T06:53:49.184Z,912
2017-03-14T06:54:58.693Z,888
2017-03-14T06:56:07.801Z,908
2017-03-14T06:57:18.516Z,952
2017-03-14T06:58:29.247Z,1004
2017-03-14T06:59:39.792Z,1024
2017-03-14T07:00:50.563Z,1028
2017-03-14T07:02:00.901Z,1044
2017-03-14T07:03:11.348Z,1064
2017-03-14T07:04:22.055Z,1088
2017-03-14T07:05:33.024Z,1136
2017-03-14T07:06:43.327Z,1156
2017-03-14T07:07:53.234Z,1172
2017-03-14T07:09:03.930Z,1216
2017-03-14T07:10:14.513Z,1240
2017-03-14T07:11:25.096Z,1228
2017-03-14T07:12:35.797Z,1204
2017-03-14T07:13:46.518Z,1236
2017-03-14T07:14:57.213Z,1204
2017-03-14T07:16:06.757Z,1136
2017-03-14T07:17:17.349Z,1100
2017-03-14T07:18:27.645Z,1032
2017-03-14T07:19:37.930Z,1040
2017-03-14T07:20:48.225Z,1036
2017-03-14T07:21:58.516Z,1036
2017-03-14T07:23:09.464Z,1116
2017-03-14T07:24:19.372Z,1208
2017-03-14T07:25:30.064Z,1228
2017-03-14T07:26:40.368Z,1296
2017-03-14T07:27:50.683Z,1392
2017-03-14T07:29:01.641Z,1468
2017-03-14T07:30:12.370Z,1476
2017-03-14T07:31:23.065Z,1584
2017-03-14T07:32:33.388Z,1576
2017-03-14T07:33:43.307Z,1676
2017-03-14T07:34:54.259Z,1652
2017-03-14T07:36:04.968Z,1636
2017-03-14T07:37:15.707Z,1760
2017-03-14T07:38:25.214Z,1724
2017-03-14T07:39:35.752Z,1752
2017-03-14T07:40:45.924Z,1848
2017-03-14T07:41:55.820Z,1932
2017-03-14T07:43:06.540Z,1952
2017-03-14T07:44:16.440Z,1952
2017-03-14T07:45:26.748Z,1928
2017-03-14T07:46:37.690Z,1952
2017-03-14T07:47:48.404Z,1964
2017-03-14T07:48:59.098Z,2060
2017-03-14T07:50:09.795Z,2000
2017-03-14T07:51:20.099Z,2000
2017-03-14T07:52:30.664Z,1952
2017-03-14T07:53:40.877Z,1872
2017-03-14T07:54:51.231Z,1824
2017-03-14T07:56:01.528Z,1756
2017-03-14T07:57:11.434Z,1764
2017-03-14T07:58:22.399Z,1740
2017-03-14T07:59:32.357Z,1772
2017-03-14T08:00:41.911Z,1756
2017-03-14T08:01:52.223Z,1680
2017-03-14T08:03:02.549Z,1588
2017-03-14T08:04:12.712Z,1592
2017-03-14T08:05:23.057Z,1696
2017-03-14T08:06:33.815Z,1968
2017-03-14T08:07:44.119Z,2168
2017-03-14T08:08:54.846Z,2256
2017-03-14T08:10:05.435Z,2460
2017-03-14T08:11:15.369Z,2544
2017-03-14T08:12:26.119Z,2316
2017-03-14T08:13:36.043Z,2316
2017-03-14T08:14:46.741Z,2492
2017-03-14T08:15:57.733Z,1784
2017-03-14T08:17:08.431Z,1496
2017-03-14T08:18:19.119Z,1372
2017-03-14T08:19:29.807Z,1268
2017-03-14T08:20:40.522Z,1240
2017-03-14T08:21:51.481Z,1272
2017-03-14T08:23:01.423Z,1496
2017-03-14T08:24:11.324Z,1644
2017-03-14T08:25:21.630Z,1524
2017-03-14T08:26:31.931Z,1228
2017-03-14T08:27:42.108Z,1336
2017-03-14T08:28:52.013Z,1592
2017-03-14T08:30:02.713Z,1936
2017-03-14T08:31:12.619Z,2140
2017-03-14T08:32:23.309Z,2200
2017-03-14T08:33:33.862Z,2136
2017-03-14T08:34:44.171Z,2260
2017-03-14T08:35:54.878Z,2352
2017-03-14T08:37:05.570Z,2008
2017-03-14T08:38:16.280Z,2008
2017-03-14T08:39:27.235Z,1848
2017-03-14T08:40:37.988Z,1728
2017-03-14T08:41:48.294Z,1744
2017-03-14T08:42:59.004Z,1676
2017-03-14T08:44:09.316Z,1620
2017-03-14T08:45:19.873Z,1592
2017-03-14T08:46:30.604Z,1820
2017-03-14T08:47:40.892Z,2052
2017-03-14T08:48:50.826Z,2232
2017-03-14T08:50:01.524Z,2160
2017-03-14T08:51:11.675Z,2348
2017-03-14T08:52:22.024Z,2568
2017-03-14T08:53:31.930Z,2692
2017-03-14T08:54:42.286Z,2812
2017-03-14T08:55:53.012Z,2824
2017-03-14T08:57:03.994Z,2940
2017-03-14T08:58:14.686Z,3080
2017-03-14T08:59:24.988Z,3392
2017-03-14T09:00:35.337Z,3056
2017-03-14T09:01:45.674Z,2904
2017-03-14T09:02:56.669Z,2956
2017-03-14T09:04:06.983Z,3088
2017-03-14T09:05:17.742Z,2976
2017-03-14T09:06:28.470Z,2860
2017-03-14T09:07:39.167Z,2892
2017-03-14T09:08:49.336Z,2884
2017-03-14T09:10:00.091Z,3092
2017-03-14T09:11:10.093Z,3332
2017-03-14T09:12:20.794Z,3352
2017-03-14T09:13:30.700Z,3388
2017-03-14T09:14:41.278Z,3292
2017-03-14T09:15:51.998Z,3116
2017-03-14T09:17:02.751Z,3140
2017-03-14T09:18:13.057Z,3096
2017-03-14T09:19:23.785Z,3052
2017-03-14T09:20:33.967Z,3224
2017-03-14T09:21:44.995Z,3220
2017-03-14T09:22:55.700Z,3260
2017-03-14T09:24:06.065Z,3180
2017-03-14T09:25:17.026Z,3240
2017-03-14T09:26:27.676Z,3240
2017-03-14T09:27:38.470Z,3072
2017-03-14T09:28:49.232Z,2972
2017-03-14T09:29:59.127Z,2744
2017-03-14T09:31:09.852Z,2792
2017-03-14T09:32:20.819Z,3008
2017-03-14T09:33:31.112Z,3008
2017-03-14T09:34:41.452Z,3116
2017-03-14T09:35:52.137Z,3036
2017-03-14T09:37:02.851Z,2932
2017-03-14T09:38:13.076Z,2780
2017-03-14T09:39:23.781Z,2620
2017-03-14T09:40:34.729Z,2640
2017-03-14T09:41:45.449Z,2652
2017-03-14T09:42:55.372Z,2688
2017-03-14T09:44:06.331Z,2740
2017-03-14T09:45:17.055Z,2724
2017-03-14T09:46:27.756Z,2528
2017-03-14T09:47:38.081Z,2516
2017-03-14T09:48:47.997Z,2504
2017-03-14T09:49:58.584Z,2468
2017-03-14T09:51:08.974Z,2596
2017-03-14T09:52:19.697Z,2752
2017-03-14T09:53:30.415Z,2700
2017-03-14T09:54:40.714Z,2636
2017-03-14T09:55:51.293Z,2648
2017-03-14T09:57:02.720Z,2724
2017-03-14T09:58:13.411Z,2784
2017-03-14T09:59:23.395Z,2724
2017-03-14T10:00:34.121Z,2784
2017-03-14T10:01:45.124Z,2788
2017-03-14T10:02:56.054Z,2828
2017-03-14T10:04:06.388Z,2892
2017-03-14T10:05:16.719Z,3028
2017-03-14T10:06:27.438Z,3160
2017-03-14T10:07:38.398Z,3216
2017-03-14T10:08:49.103Z,3200
2017-03-14T10:09:59.421Z,3132
2017-03-14T10:11:10.148Z,3056
2017-03-14T10:12:20.476Z,3048
2017-03-14T10:13:31.443Z,3052
2017-03-14T10:14:41.353Z,2988
2017-03-14T10:15:51.662Z,2864
2017-03-14T10:17:01.969Z,2796
2017-03-14T10:18:12.667Z,2772
2017-03-14T10:19:22.608Z,2820
2017-03-14T10:20:32.937Z,2828
2017-03-14T10:21:42.841Z,2672
2017-03-14T10:22:52.983Z,2600
2017-03-14T10:24:02.624Z,2596
2017-03-14T10:25:12.937Z,2588
2017-03-14T10:26:23.250Z,2544
2017-03-14T10:27:33.231Z,2496
2017-03-14T10:28:43.209Z,2388
2017-03-14T10:29:53.768Z,2548
2017-03-14T10:31:03.455Z,2708
2017-03-14T10:32:13.115Z,2932
2017-03-14T10:33:23.105Z,3092
2017-03-14T10:34:33.064Z,3180
2017-03-14T10:35:43.283Z,3192
2017-03-14T10:36:53.580Z,3108
2017-03-14T10:38:03.562Z,3148
2017-03-14T10:39:13.515Z,3068
2017-03-14T10:40:23.491Z,2904
2017-03-14T10:41:33.705Z,2720
2017-03-14T10:42:43.651Z,2484
2017-03-14T10:43:53.932Z,2324
2017-03-14T10:45:03.911Z,2248
2017-03-14T10:46:13.561Z,2048
2017-03-14T10:47:24.082Z,1848
2017-03-14T10:48:34.370Z,1668
2017-03-14T10:49:44.734Z,1608
2017-03-14T10:50:55.023Z,1604
2017-03-14T10:52:05.309Z,1576
2017-03-14T10:53:15.841Z,1496
2017-03-14T10:54:25.821Z,1428
2017-03-14T10:55:36.316Z,1432
2017-03-14T10:56:46.585Z,1396
2017-03-14T10:57:56.558Z,1448
2017-03-14T10:59:07.074Z,1492
2017-03-14T11:00:16.759Z,1600
2017-03-14T11:01:27.031Z,1584
2017-03-14T11:02:37.311Z,1536
2017-03-14T11:03:46.711Z,1540
2017-03-14T11:04:57.283Z,1484
2017-03-14T11:06:07.309Z,1652
2017-03-14T11:07:17.587Z,1480
2017-03-14T11:08:26.925Z,1388
2017-03-14T11:09:36.896Z,1388
2017-03-14T11:10:47.443Z,1464
2017-03-14T11:11:57.403Z,1328
2017-03-14T11:13:07.375Z,1400
2017-03-14T11:14:17.650Z,1480
2017-03-14T11:15:27.356Z,1444
2017-03-14T11:16:37.873Z,1340
2017-03-14T11:17:47.525Z,1360
2017-03-14T11:18:57.496Z,1332
2017-03-14T11:20:07.145Z,1336
2017-03-14T11:21:17.115Z,1332
2017-03-14T11:22:27.331Z,1340
2017-03-14T11:23:37.602Z,1356
2017-03-14T11:24:47.876Z,1372
2017-03-14T11:25:57.833Z,1372
2017-03-14T11:27:08.107Z,1468
2017-03-14T11:28:18.008Z,1380
2017-03-14T11:29:28.291Z,1372
2017-03-14T11:30:38.567Z,1380
2017-03-14T11:31:48.227Z,1384
2017-03-14T11:32:57.883Z,1372
2017-03-14T11:34:07.786Z,1396
2017-03-14T11:35:17.755Z,1440
2017-03-14T11:36:27.408Z,1476
2017-03-14T11:37:37.411Z,1496
2017-03-14T11:38:47.406Z,1576
2017-03-14T11:39:57.942Z,1548
2017-03-14T11:41:08.247Z,1584
2017-03-14T11:42:18.789Z,1668
2017-03-14T11:43:28.748Z,1592
2017-03-14T11:44:39.016Z,1608
2017-03-14T11:45:49.224Z,1712
2017-03-14T11:46:59.187Z,1900
2017-03-14T11:48:09.484Z,1936
2017-03-14T11:49:19.489Z,1868
2017-03-14T11:50:29.757Z,1968
2017-03-14T11:51:40.046Z,2172
2017-03-14T11:52:50.315Z,2428
2017-03-14T11:54:00.609Z,2448
2017-03-14T11:55:10.891Z,2352
2017-03-14T11:56:21.446Z,2392
2017-03-14T11:57:31.717Z,2500
2017-03-14T11:58:41.680Z,2692
2017-03-14T11:59:51.960Z,2864
2017-03-14T12:01:01.926Z,2992
2017-03-14T12:02:12.137Z,3060
2017-03-14T12:03:22.114Z,2976
2017-03-14T12:04:32.387Z,2856
2017-03-14T12:05:42.348Z,2860
2017-03-14T12:06:52.306Z,2708
2017-03-14T12:08:02.859Z,2432
2017-03-14T12:09:12.829Z,2404
2017-03-14T12:10:22.490Z,2464
2017-03-14T12:11:32.463Z,2644
2017-03-14T12:12:42.740Z,2580
2017-03-14T12:13:52.946Z,2436
2017-03-14T12:15:02.920Z,2324
2017-03-14T12:16:13.202Z,2584
2017-03-14T12:17:23.146Z,2528
2017-03-14T12:18:33.436Z,2472
2017-03-14T12:19:43.953Z,2312
2017-03-14T12:20:53.926Z,1892
2017-03-14T12:22:04.230Z,1832
2017-03-14T12:23:14.498Z,2088
2017-03-14T12:24:24.477Z,2008
2017-03-14T12:25:34.716Z,2352
2017-03-14T12:26:44.995Z,2692
2017-03-14T12:27:55.280Z,2440
2017-03-14T12:29:05.253Z,2708
2017-03-14T12:30:15.553Z,2524
2017-03-14T12:31:26.326Z,2564
2017-03-14T12:32:36.316Z,2404
2017-03-14T12:33:46.292Z,2388
2017-03-14T12:34:56.561Z,2524
2017-03-14T12:36:06.827Z,2540
2017-03-14T12:37:16.785Z,2328
2017-03-14T12:38:27.064Z,2188
2017-03-14T12:39:37.329Z,2112
2017-03-14T12:40:47.287Z,2076
2017-03-14T12:41:57.583Z,2100
2017-03-14T12:43:07.876Z,2120
2017-03-14T12:44:18.189Z,2336
2017-03-14T12:45:28.468Z,2292
2017-03-14T12:46:38.447Z,2224
2017-03-14T12:47:48.739Z,2208
2017-03-14T12:48:59.470Z,2032
2017-03-14T12:50:09.121Z,1940
2017-03-14T12:51:18.814Z,2064
2017-03-14T12:52:28.782Z,2216
2017-03-14T12:53:38.455Z,2180
2017-03-14T12:54:48.753Z,1972
2017-03-14T12:55:59.046Z,2160
2017-03-14T12:57:08.786Z,2192
2017-03-14T12:58:19.096Z,2200
2017-03-14T12:59:29.230Z,2012
2017-03-14T13:00:39.609Z,1980
2017-03-14T13:01:49.913Z,2168
2017-03-14T13:02:59.609Z,2492
2017-03-14T13:04:09.907Z,2312
2017-03-14T13:05:19.581Z,2608
2017-03-14T13:06:29.862Z,2672
2017-03-14T13:07:40.170Z,2608
2017-03-14T13:08:50.455Z,2404
2017-03-14T13:10:00.721Z,2356
2017-03-14T13:11:10.601Z,2576
2017-03-14T13:12:20.852Z,2476
2017-03-14T13:13:30.755Z,2580
2017-03-14T13:14:41.115Z,2360
2017-03-14T13:15:51.427Z,2280
2017-03-14T13:17:01.722Z,2276
2017-03-14T13:18:12.283Z,2288
2017-03-14T13:19:22.319Z,2424
2017-03-14T13:20:32.621Z,2248
2017-03-14T13:21:42.577Z,1956
2017-03-14T13:22:52.228Z,1712
2017-03-14T13:24:02.859Z,1960
2017-03-14T13:25:13.137Z,1940
2017-03-14T13:26:23.454Z,1788
2017-03-14T13:27:32.813Z,1724
2017-03-14T13:28:43.079Z,1808
2017-03-14T13:29:53.652Z,1700
2017-03-14T13:31:03.928Z,1704
2017-03-14T13:32:14.248Z,1604
2017-03-14T13:33:23.915Z,1556
2017-03-14T13:34:33.873Z,1772
2017-03-14T13:35:44.405Z,1940
2017-03-14T13:36:54.399Z,1864
2017-03-14T13:38:04.688Z,1864
2017-03-14T13:39:14.670Z,1800
2017-03-14T13:40:24.961Z,1720
2017-03-14T13:41:35.243Z,1608
2017-03-14T13:42:44.894Z,1404
2017-03-14T13:43:54.557Z,1420
2017-03-14T13:45:04.227Z,1504
2017-03-14T13:46:14.220Z,1460
2017-03-14T13:47:24.752Z,1360
2017-03-14T13:48:35.257Z,1204
2017-03-14T13:49:45.565Z,1172
2017-03-14T13:50:55.846Z,1128
2017-03-14T13:52:06.146Z,1052
2017-03-14T13:53:16.398Z,1016
2017-03-14T13:54:26.085Z,1004
2017-03-14T13:55:36.349Z,1012
2017-03-14T13:56:46.318Z,1068
2017-03-14T13:57:56.616Z,1136
2017-03-14T13:59:07.166Z,996
2017-03-14T14:00:17.118Z,1008
2017-03-14T14:01:27.079Z,1192
2017-03-14T14:02:36.741Z,1468
2017-03-14T14:03:46.398Z,1712
2017-03-14T14:04:56.667Z,1892
2017-03-14T14:06:06.941Z,2072
2017-03-14T14:07:16.911Z,2196
2017-03-14T14:08:27.182Z,2140
2017-03-14T14:09:38.069Z,2032
2017-03-14T14:10:47.979Z,1976
2017-03-14T14:11:57.664Z,1860
2017-03-14T14:13:07.635Z,1792
2017-03-14T14:14:17.911Z,1852
2017-03-14T14:15:27.565Z,1848
2017-03-14T14:16:37.785Z,1840
2017-03-14T14:17:47.756Z,1728
2017-03-14T14:18:57.091Z,1616
2017-03-14T14:20:07.361Z,1612
2017-03-14T14:21:17.665Z,1640
2017-03-14T14:22:27.868Z,1572
2017-03-14T14:23:38.144Z,1400
2017-03-14T14:24:48.342Z,1400
2017-03-14T14:25:58.742Z,1448
2017-03-14T14:27:09.012Z,1460
2017-03-14T14:28:19.233Z,1348
2017-03-14T14:29:29.215Z,1248
2017-03-14T14:30:39.486Z,1260
2017-03-14T14:31:49.454Z,1264
2017-03-14T14:32:59.117Z,1228
2017-03-14T14:34:09.030Z,1320
2017-03-14T14:35:19.319Z,1332
2017-03-14T14:36:29.605Z,1308
2017-03-14T14:37:39.251Z,1252
2017-03-14T14:38:49.548Z,1180
2017-03-14T14:39:59.748Z,1116
2017-03-14T14:41:09.728Z,1076
2017-03-14T14:42:19.987Z,1044
2017-03-14T14:43:30.263Z,1124
2017-03-14T14:44:40.552Z,1212
2017-03-14T14:45:50.822Z,1308
2017-03-14T14:47:00.806Z,1344
2017-03-14T14:48:11.095Z,1444
2017-03-14T14:49:21.402Z,1520
2017-03-14T14:50:31.684Z,1544
2017-03-14T14:51:41.919Z,1544
2017-03-14T14:52:52.196Z,1452
2017-03-14T14:54:01.544Z,1368
2017-03-14T14:55:11.828Z,1420
2017-03-14T14:56:22.118Z,1380
2017-03-14T14:57:32.097Z,1308
2017-03-14T14:58:42.057Z,1364
2017-03-14T14:59:52.420Z,1420
2017-03-14T15:01:02.721Z,1420
2017-03-14T15:02:12.697Z,1396
2017-03-14T15:03:22.598Z,1360
2017-03-14T15:04:32.593Z,1308
2017-03-14T15:05:42.571Z,1304
2017-03-14T15:06:52.566Z,1256
2017-03-14T15:08:02.842Z,1236
2017-03-14T15:09:13.376Z,1204
2017-03-14T15:10:23.349Z,1112
2017-03-14T15:11:33.646Z,1028
2017-03-14T15:12:43.945Z,920
2017-03-14T15:13:54.241Z,884
2017-03-14T15:15:04.525Z,924
2017-03-14T15:16:14.799Z,944
2017-03-14T15:17:25.092Z,956
2017-03-14T15:18:34.446Z,988
2017-03-14T15:19:44.097Z,992
2017-03-14T15:20:54.371Z,996
2017-03-14T15:22:04.349Z,1084
2017-03-14T15:23:14.346Z,1124
2017-03-14T15:24:24.007Z,1128
2017-03-14T15:25:34.288Z,1140
2017-03-14T15:26:44.871Z,1104
2017-03-14T15:27:55.163Z,1064
2017-03-14T15:29:05.462Z,1060
2017-03-14T15:30:15.766Z,1052
2017-03-14T15:31:25.733Z,1012
2017-03-14T15:32:36.240Z,1004
2017-03-14T15:33:46.524Z,948
2017-03-14T15:34:56.493Z,936
2017-03-14T15:36:06.811Z,928
2017-03-14T15:37:16.799Z,924
2017-03-14T15:38:27.050Z,876
2017-03-14T15:39:37.328Z,864
2017-03-14T15:40:47.605Z,828
2017-03-14T15:41:57.574Z,816
2017-03-14T15:43:07.860Z,808
2017-03-14T15:44:18.417Z,800
2017-03-14T15:45:28.696Z,800
2017-03-14T15:46:38.681Z,784
2017-03-14T15:47:48.959Z,772
2017-03-14T15:48:59.468Z,764
2017-03-14T15:50:09.723Z,748
2017-03-14T15:51:19.375Z,732
2017-03-14T15:52:29.671Z,716
2017-03-14T15:53:39.377Z,704
2017-03-14T15:54:49.659Z,688
2017-03-14T15:56:00.204Z,676
2017-03-14T15:57:10.494Z,656
2017-03-14T15:58:20.717Z,644
2017-03-14T15:59:30.702Z,624
2017-03-14T16:00:40.354Z,612
2017-03-14T16:01:50.886Z,592
2017-03-14T16:03:01.191Z,568
2017-03-14T16:04:11.471Z,548
2017-03-14T16:05:21.125Z,524
2017-03-14T16:06:31.100Z,516
2017-03-14T16:07:41.673Z,524
2017-03-14T16:08:51.632Z,532
2017-03-14T16:10:01.936Z,504
2017-03-14T16:11:11.915Z,476
2017-03-14T16:12:22.201Z,452